GCRRGCFV

Guest
Details From GCRR - Lanzarote
To GCFV - Fuerteventura
Flight Number -
Tags generated
Created
Modified
Stats Distance 33 nm / 61 km
Max Altitude 200 ft / 61 m
Waypoints 3
Social Downloads 2
Likes 0
Share VATSIM

Download

Looking for another format? Having issues loading an existing format? Contact us
Advertisement - Login to hide

Notes

Basic altitude profile: - Ascent Rate: 2500ft/min - Ascent Speed: 250kts - Cruise Altitude: 35000ft - Cruise Speed: 420kts - Descent Rate: 1500ft/min - Descent Speed: 250kts Options: - Use NATs: yes - Use PACOTS: yes - Use low airways: yes - Use high airways: no

Route

GCRR LTE GCFV

ID Type Via Altitude Latitude Longitude Leg Dist Tot Dist Heading (true) Name
O GCRR APT - 0 ft / 0 m 28.94547˚ -13.60522˚ - 0 nm - Lanzarote
LTE VOR - 200 ft / 61 m 28.94188˚ -13.61643˚ 0 nm 0 nm 250° / 250° LANZAROTE VOR-DME
O GCFV APT - 0 ft / 0 m 28.44788˚ -13.86489˚ 32 nm 33 nm 204° / 204° Fuerteventura

Altitude Profile

Advertisement - Login to hide

GCRR

Details ICAO GCRR (ACE)
Name Lanzarote
Region Canary Islands
Timezone Atlantic/Canary (UTC+0.0)
Stats Elevation 0 ft / 0 m (AMSL)
Location 28.945466° -13.605223°
Runways 1
Magnetic Variation 3.975° W

METAR

GCRR 170030Z 01006KT 9999 BKN035 17/13 Q1022

Decode

TAF

TAF GCRR 162000Z 1621/1721 02012KT 9999 BKN025 TX21/1714Z TN13/1706Z PROB40 TEMPO 1621/1712 RA

Decode

Departure Runways

ID Width Length Bearing (true) Bearing (mag) Surface Threshold Offset Overrun Length
03 148 ft / 45 m 7,893 ft / 2,406 m 26.90° 30.88° Asphalt 197 ft / 60 m 197 ft / 60 m
21 148 ft / 45 m 7,893 ft / 2,406 m 206.91° 210.89° Asphalt 197 ft / 60 m 197 ft / 60 m

GCFV

Details ICAO GCFV (FUE)
Name Fuerteventura
Region Canary Islands
Timezone Atlantic/Canary (UTC+0.0)
Stats Elevation 85 ft / 26 m (AMSL)
Location 28.447882° -13.864892°
Runways 2
Magnetic Variation 4.098° W

METAR

GCFV 170030Z AUTO 01013KT 9999 FEW030/// BKN037/// 19/15 Q1022

Decode

TAF

TAF GCFV 162000Z 1621/1721 01012KT 9999 BKN025 TX20/1714Z TN14/1706Z PROB40 TEMPO 1621/1712 RA

Decode

Destination Runways

ID Width Length Bearing (true) Bearing (mag) Surface Threshold Offset Overrun Length
01L 148 ft / 45 m 5,433 ft / 1,656 m 1.67° 5.77° Asphalt 0 ft / 0 m 984 ft / 300 m
01R 148 ft / 45 m 7,905 ft / 2,409 m 1.66° 5.76° Asphalt 0 ft / 0 m 3,281 ft / 1,000 m
19L 148 ft / 45 m 7,905 ft / 2,409 m 181.66° 185.76° Asphalt 0 ft / 0 m 197 ft / 60 m
19R 148 ft / 45 m 5,433 ft / 1,656 m 181.67° 185.77° Asphalt 0 ft / 0 m 820 ft / 250 m

Approach Navaids

Runway Type Ident Frequency Range Bearing (true) Bearing (mag) Slope Elevation
01R Localiser IFV 109.50 MHz 18 nm / 33 km 1.66° 5.76° - 64 ft / 20 m (AMSL)
01R Glidescope IFV 109.50 MHz 10 nm / 19 km 1.66° 5.76° 3.00° 85 ft / 26 m (AMSL)
01R DME IFV 109.50 MHz 18 nm / 33 km - - - 85 ft / 26 m (AMSL)

Popular Alternatives